sensor_id;sensor_type;location;lat;lon;timestamp;P1;durP1;ratioP1;P2;durP2;ratioP2
21168;SDS011;10742;51.816;8.662;2023-01-29T00:01:49;26.53;;;10.90;;
21168;SDS011;10742;51.816;8.662;2023-01-29T00:04:53;28.87;;;12.20;;
21168;SDS011;10742;51.816;8.662;2023-01-29T00:08:00;30.00;;;11.87;;
21168;SDS011;10742;51.816;8.662;2023-01-29T00:11:03;25.70;;;11.73;;
21168;SDS011;10742;51.816;8.662;2023-01-29T00:14:07;26.80;;;12.27;;
21168;SDS011;10742;51.816;8.662;2023-01-29T00:17:09;28.10;;;11.90;;
21168;SDS011;10742;51.816;8.662;2023-01-29T00:20:11;26.80;;;11.20;;
21168;SDS011;10742;51.816;8.662;2023-01-29T00:23:14;27.53;;;12.07;;
21168;SDS011;10742;51.816;8.662;2023-01-29T00:26:16;30.13;;;12.47;;
21168;SDS011;10742;51.816;8.662;2023-01-29T00:29:21;32.47;;;12.47;;
21168;SDS011;10742;51.816;8.662;2023-01-29T00:32:24;25.47;;;10.80;;
21168;SDS011;10742;51.816;8.662;2023-01-29T00:35:26;31.57;;;13.63;;
21168;SDS011;10742;51.816;8.662;2023-01-29T00:38:28;31.60;;;12.20;;
21168;SDS011;10742;51.816;8.662;2023-01-29T00:41:31;28.27;;;13.00;;
21168;SDS011;10742;51.816;8.662;2023-01-29T00:44:52;28.77;;;12.03;;
21168;SDS011;10742;51.816;8.662;2023-01-29T00:48:01;29.37;;;12.43;;
21168;SDS011;10742;51.816;8.662;2023-01-29T00:51:04;31.27;;;12.40;;
21168;SDS011;10742;51.816;8.662;2023-01-29T00:54:06;28.93;;;12.30;;
21168;SDS011;10742;51.816;8.662;2023-01-29T00:57:08;32.17;;;13.23;;
21168;SDS011;10742;51.816;8.662;2023-01-29T01:00:12;30.83;;;12.60;;
21168;SDS011;10742;51.816;8.662;2023-01-29T01:03:17;29.47;;;12.40;;
21168;SDS011;10742;51.816;8.662;2023-01-29T01:06:21;32.03;;;13.57;;
21168;SDS011;10742;51.816;8.662;2023-01-29T01:09:23;30.23;;;13.33;;
21168;SDS011;10742;51.816;8.662;2023-01-29T01:12:44;34.93;;;15.37;;
21168;SDS011;10742;51.816;8.662;2023-01-29T01:15:46;29.07;;;12.87;;
21168;SDS011;10742;51.816;8.662;2023-01-29T01:18:48;29.00;;;12.43;;
21168;SDS011;10742;51.816;8.662;2023-01-29T01:21:50;28.93;;;12.00;;
21168;SDS011;10742;51.816;8.662;2023-01-29T01:24:53;30.07;;;12.73;;
21168;SDS011;10742;51.816;8.662;2023-01-29T01:27:55;34.67;;;14.30;;
21168;SDS011;10742;51.816;8.662;2023-01-29T01:31:06;32.40;;;15.43;;
21168;SDS011;10742;51.816;8.662;2023-01-29T01:34:10;33.83;;;14.57;;
21168;SDS011;10742;51.816;8.662;2023-01-29T01:37:12;33.20;;;14.70;;
21168;SDS011;10742;51.816;8.662;2023-01-29T01:40:16;29.40;;;13.27;;
21168;SDS011;10742;51.816;8.662;2023-01-29T01:43:20;29.90;;;13.77;;
21168;SDS011;10742;51.816;8.662;2023-01-29T01:46:23;30.03;;;13.30;;
21168;SDS011;10742;51.816;8.662;2023-01-29T01:49:26;30.73;;;13.50;;
21168;SDS011;10742;51.816;8.662;2023-01-29T01:52:29;30.43;;;13.53;;
21168;SDS011;10742;51.816;8.662;2023-01-29T01:55:33;32.47;;;14.00;;
21168;SDS011;10742;51.816;8.662;2023-01-29T01:58:39;28.57;;;12.83;;
21168;SDS011;10742;51.816;8.662;2023-01-29T02:01:46;32.87;;;13.57;;
21168;SDS011;10742;51.816;8.662;2023-01-29T02:04:52;32.67;;;13.73;;
21168;SDS011;10742;51.816;8.662;2023-01-29T02:08:13;29.93;;;12.47;;
21168;SDS011;10742;51.816;8.662;2023-01-29T02:11:35;31.53;;;13.73;;
21168;SDS011;10742;51.816;8.662;2023-01-29T02:14:39;36.47;;;12.70;;
21168;SDS011;10742;51.816;8.662;2023-01-29T02:17:42;31.47;;;13.83;;
21168;SDS011;10742;51.816;8.662;2023-01-29T02:21:06;33.60;;;14.17;;
21168;SDS011;10742;51.816;8.662;2023-01-29T02:24:46;32.93;;;13.60;;
21168;SDS011;10742;51.816;8.662;2023-01-29T02:38:35;30.77;;;13.10;;
21168;SDS011;10742;51.816;8.662;2023-01-29T02:41:55;35.73;;;15.17;;
21168;SDS011;10742;51.816;8.662;2023-01-29T02:45:32;33.63;;;14.07;;
21168;SDS011;10742;51.816;8.662;2023-01-29T02:48:55;33.57;;;13.63;;
21168;SDS011;10742;51.816;8.662;2023-01-29T02:55:11;35.63;;;14.00;;
21168;SDS011;10742;51.816;8.662;2023-01-29T02:58:40;27.63;;;12.77;;
21168;SDS011;10742;51.816;8.662;2023-01-29T03:01:55;29.70;;;12.87;;
21168;SDS011;10742;51.816;8.662;2023-01-29T03:05:07;28.53;;;12.93;;
21168;SDS011;10742;51.816;8.662;2023-01-29T03:08:14;31.83;;;13.60;;
21168;SDS011;10742;51.816;8.662;2023-01-29T03:11:22;33.30;;;14.27;;
21168;SDS011;10742;51.816;8.662;2023-01-29T03:14:29;29.43;;;12.80;;
21168;SDS011;10742;51.816;8.662;2023-01-29T03:17:55;32.83;;;13.43;;
21168;SDS011;10742;51.816;8.662;2023-01-29T03:21:24;32.70;;;13.67;;
21168;SDS011;10742;51.816;8.662;2023-01-29T03:24:52;30.43;;;13.17;;
21168;SDS011;10742;51.816;8.662;2023-01-29T03:28:19;34.83;;;14.93;;
21168;SDS011;10742;51.816;8.662;2023-01-29T03:31:42;29.20;;;12.50;;
21168;SDS011;10742;51.816;8.662;2023-01-29T03:35:05;31.23;;;13.40;;
21168;SDS011;10742;51.816;8.662;2023-01-29T03:38:10;31.73;;;14.13;;
21168;SDS011;10742;51.816;8.662;2023-01-29T03:41:24;33.80;;;14.70;;
21168;SDS011;10742;51.816;8.662;2023-01-29T03:48:10;32.43;;;13.93;;
21168;SDS011;10742;51.816;8.662;2023-01-29T03:51:27;34.90;;;13.33;;
21168;SDS011;10742;51.816;8.662;2023-01-29T03:57:57;39.67;;;15.63;;
21168;SDS011;10742;51.816;8.662;2023-01-29T04:01:28;33.83;;;14.37;;
21168;SDS011;10742;51.816;8.662;2023-01-29T04:04:33;34.13;;;13.87;;
21168;SDS011;10742;51.816;8.662;2023-01-29T04:07:39;34.40;;;14.20;;
21168;SDS011;10742;51.816;8.662;2023-01-29T04:10:45;33.03;;;15.03;;
21168;SDS011;10742;51.816;8.662;2023-01-29T04:13:50;32.70;;;14.23;;
21168;SDS011;10742;51.816;8.662;2023-01-29T04:16:54;36.30;;;14.80;;
21168;SDS011;10742;51.816;8.662;2023-01-29T04:20:08;36.80;;;15.27;;
21168;SDS011;10742;51.816;8.662;2023-01-29T04:23:21;35.17;;;14.97;;
21168;SDS011;10742;51.816;8.662;2023-01-29T04:29:49;37.63;;;15.23;;
21168;SDS011;10742;51.816;8.662;2023-01-29T04:36:16;31.17;;;13.43;;
21168;SDS011;10742;51.816;8.662;2023-01-29T04:39:29;34.80;;;14.63;;
21168;SDS011;10742;51.816;8.662;2023-01-29T04:42:54;37.50;;;15.10;;
21168;SDS011;10742;51.816;8.662;2023-01-29T04:46:14;33.43;;;14.67;;
21168;SDS011;10742;51.816;8.662;2023-01-29T04:52:46;37.07;;;15.07;;
21168;SDS011;10742;51.816;8.662;2023-01-29T04:56:05;36.77;;;14.90;;
21168;SDS011;10742;51.816;8.662;2023-01-29T04:59:28;38.50;;;15.47;;
21168;SDS011;10742;51.816;8.662;2023-01-29T05:02:35;34.67;;;14.33;;
21168;SDS011;10742;51.816;8.662;2023-01-29T05:05:46;33.20;;;14.57;;
21168;SDS011;10742;51.816;8.662;2023-01-29T05:08:49;37.83;;;15.20;;
21168;SDS011;10742;51.816;8.662;2023-01-29T05:11:52;35.43;;;13.23;;
21168;SDS011;10742;51.816;8.662;2023-01-29T05:14:57;35.67;;;14.57;;
21168;SDS011;10742;51.816;8.662;2023-01-29T05:18:04;33.63;;;13.87;;
21168;SDS011;10742;51.816;8.662;2023-01-29T05:21:09;35.53;;;14.47;;
21168;SDS011;10742;51.816;8.662;2023-01-29T05:24:22;35.93;;;14.93;;
21168;SDS011;10742;51.816;8.662;2023-01-29T05:27:30;37.17;;;16.17;;
21168;SDS011;10742;51.816;8.662;2023-01-29T05:30:55;38.07;;;17.43;;
21168;SDS011;10742;51.816;8.662;2023-01-29T05:33:58;33.17;;;13.90;;
21168;SDS011;10742;51.816;8.662;2023-01-29T05:37:00;36.63;;;15.10;;
21168;SDS011;10742;51.816;8.662;2023-01-29T05:40:03;34.90;;;15.23;;
21168;SDS011;10742;51.816;8.662;2023-01-29T05:43:18;36.60;;;14.63;;
21168;SDS011;10742;51.816;8.662;2023-01-29T05:46:21;34.33;;;14.03;;
21168;SDS011;10742;51.816;8.662;2023-01-29T05:49:24;33.63;;;14.50;;
21168;SDS011;10742;51.816;8.662;2023-01-29T05:52:26;34.90;;;14.63;;
21168;SDS011;10742;51.816;8.662;2023-01-29T05:55:29;36.83;;;14.80;;
21168;SDS011;10742;51.816;8.662;2023-01-29T05:58:31;36.77;;;14.80;;
21168;SDS011;10742;51.816;8.662;2023-01-29T06:01:35;41.33;;;16.00;;
21168;SDS011;10742;51.816;8.662;2023-01-29T06:04:37;34.80;;;14.60;;
21168;SDS011;10742;51.816;8.662;2023-01-29T06:07:40;33.80;;;13.80;;
21168;SDS011;10742;51.816;8.662;2023-01-29T06:10:45;34.70;;;14.50;;
21168;SDS011;10742;51.816;8.662;2023-01-29T06:13:48;32.60;;;13.60;;
21168;SDS011;10742;51.816;8.662;2023-01-29T06:16:50;37.50;;;14.27;;
21168;SDS011;10742;51.816;8.662;2023-01-29T06:19:53;36.17;;;14.87;;
21168;SDS011;10742;51.816;8.662;2023-01-29T06:22:55;36.53;;;14.37;;
21168;SDS011;10742;51.816;8.662;2023-01-29T06:26:01;32.20;;;13.43;;
21168;SDS011;10742;51.816;8.662;2023-01-29T06:29:04;33.77;;;13.63;;
21168;SDS011;10742;51.816;8.662;2023-01-29T06:32:07;38.97;;;15.87;;
21168;SDS011;10742;51.816;8.662;2023-01-29T06:35:09;34.93;;;14.50;;
21168;SDS011;10742;51.816;8.662;2023-01-29T06:38:11;42.47;;;15.53;;
21168;SDS011;10742;51.816;8.662;2023-01-29T06:41:15;32.90;;;14.50;;
21168;SDS011;10742;51.816;8.662;2023-01-29T06:44:19;37.10;;;15.37;;
21168;SDS011;10742;51.816;8.662;2023-01-29T06:47:22;37.80;;;15.30;;
21168;SDS011;10742;51.816;8.662;2023-01-29T06:50:24;38.40;;;15.17;;
21168;SDS011;10742;51.816;8.662;2023-01-29T06:53:27;39.53;;;15.87;;
21168;SDS011;10742;51.816;8.662;2023-01-29T06:56:30;38.97;;;16.03;;
21168;SDS011;10742;51.816;8.662;2023-01-29T06:59:32;36.60;;;14.53;;
21168;SDS011;10742;51.816;8.662;2023-01-29T07:02:35;35.67;;;15.30;;
21168;SDS011;10742;51.816;8.662;2023-01-29T07:05:37;33.40;;;13.77;;
21168;SDS011;10742;51.816;8.662;2023-01-29T07:08:40;36.47;;;15.03;;
21168;SDS011;10742;51.816;8.662;2023-01-29T07:11:42;36.70;;;14.83;;
21168;SDS011;10742;51.816;8.662;2023-01-29T07:14:44;37.80;;;14.40;;
21168;SDS011;10742;51.816;8.662;2023-01-29T07:17:56;35.77;;;15.10;;
21168;SDS011;10742;51.816;8.662;2023-01-29T07:21:06;32.27;;;13.70;;
21168;SDS011;10742;51.816;8.662;2023-01-29T07:24:08;35.27;;;14.73;;
21168;SDS011;10742;51.816;8.662;2023-01-29T07:27:11;37.33;;;15.40;;
21168;SDS011;10742;51.816;8.662;2023-01-29T07:30:13;34.47;;;14.77;;
21168;SDS011;10742;51.816;8.662;2023-01-29T07:33:16;38.40;;;14.70;;
21168;SDS011;10742;51.816;8.662;2023-01-29T07:36:18;36.47;;;15.63;;
21168;SDS011;10742;51.816;8.662;2023-01-29T07:39:21;36.90;;;14.07;;
21168;SDS011;10742;51.816;8.662;2023-01-29T07:42:23;37.23;;;15.60;;
21168;SDS011;10742;51.816;8.662;2023-01-29T07:45:26;38.03;;;15.70;;
21168;SDS011;10742;51.816;8.662;2023-01-29T07:48:30;36.87;;;16.43;;
21168;SDS011;10742;51.816;8.662;2023-01-29T07:51:32;36.23;;;15.33;;
21168;SDS011;10742;51.816;8.662;2023-01-29T07:54:34;38.33;;;16.53;;
21168;SDS011;10742;51.816;8.662;2023-01-29T07:57:37;34.80;;;14.80;;
21168;SDS011;10742;51.816;8.662;2023-01-29T08:00:40;36.57;;;15.83;;
21168;SDS011;10742;51.816;8.662;2023-01-29T08:03:42;38.17;;;16.10;;
21168;SDS011;10742;51.816;8.662;2023-01-29T08:06:44;39.03;;;15.67;;
21168;SDS011;10742;51.816;8.662;2023-01-29T08:09:46;36.07;;;15.40;;
21168;SDS011;10742;51.816;8.662;2023-01-29T08:12:56;37.60;;;15.60;;
21168;SDS011;10742;51.816;8.662;2023-01-29T08:16:00;37.80;;;16.10;;
21168;SDS011;10742;51.816;8.662;2023-01-29T08:19:03;40.20;;;17.07;;
21168;SDS011;10742;51.816;8.662;2023-01-29T08:22:05;38.87;;;16.40;;
21168;SDS011;10742;51.816;8.662;2023-01-29T08:25:07;35.60;;;14.73;;
21168;SDS011;10742;51.816;8.662;2023-01-29T08:28:11;45.70;;;15.57;;
21168;SDS011;10742;51.816;8.662;2023-01-29T08:31:17;35.73;;;15.60;;
21168;SDS011;10742;51.816;8.662;2023-01-29T08:34:23;44.10;;;18.23;;
21168;SDS011;10742;51.816;8.662;2023-01-29T08:37:25;38.70;;;15.10;;
21168;SDS011;10742;51.816;8.662;2023-01-29T08:40:28;40.63;;;18.17;;
21168;SDS011;10742;51.816;8.662;2023-01-29T08:43:32;38.77;;;15.77;;
21168;SDS011;10742;51.816;8.662;2023-01-29T08:46:37;37.47;;;15.93;;
21168;SDS011;10742;51.816;8.662;2023-01-29T08:49:41;33.83;;;14.50;;
21168;SDS011;10742;51.816;8.662;2023-01-29T08:52:44;36.03;;;15.47;;
21168;SDS011;10742;51.816;8.662;2023-01-29T08:55:46;37.53;;;15.33;;
21168;SDS011;10742;51.816;8.662;2023-01-29T08:58:49;39.10;;;15.53;;
21168;SDS011;10742;51.816;8.662;2023-01-29T09:01:51;33.30;;;14.17;;
21168;SDS011;10742;51.816;8.662;2023-01-29T09:04:53;37.00;;;14.67;;
21168;SDS011;10742;51.816;8.662;2023-01-29T09:07:56;35.33;;;13.97;;
21168;SDS011;10742;51.816;8.662;2023-01-29T09:10:59;39.43;;;15.17;;
21168;SDS011;10742;51.816;8.662;2023-01-29T09:14:01;40.47;;;17.37;;
21168;SDS011;10742;51.816;8.662;2023-01-29T09:17:04;37.67;;;14.23;;
21168;SDS011;10742;51.816;8.662;2023-01-29T09:20:07;33.70;;;14.10;;
21168;SDS011;10742;51.816;8.662;2023-01-29T09:23:11;30.43;;;12.20;;
21168;SDS011;10742;51.816;8.662;2023-01-29T09:26:13;32.20;;;13.53;;
21168;SDS011;10742;51.816;8.662;2023-01-29T09:29:16;31.47;;;12.83;;
21168;SDS011;10742;51.816;8.662;2023-01-29T09:32:18;32.90;;;14.47;;
21168;SDS011;10742;51.816;8.662;2023-01-29T09:35:40;33.27;;;13.87;;
21168;SDS011;10742;51.816;8.662;2023-01-29T09:38:43;30.37;;;13.63;;
21168;SDS011;10742;51.816;8.662;2023-01-29T09:41:49;37.20;;;14.97;;
21168;SDS011;10742;51.816;8.662;2023-01-29T09:48:21;30.60;;;12.67;;
21168;SDS011;10742;51.816;8.662;2023-01-29T09:51:29;30.57;;;12.27;;
21168;SDS011;10742;51.816;8.662;2023-01-29T09:57:59;33.40;;;13.13;;
21168;SDS011;10742;51.816;8.662;2023-01-29T10:01:26;32.53;;;13.30;;
21168;SDS011;10742;51.816;8.662;2023-01-29T10:08:28;32.50;;;13.90;;
21168;SDS011;10742;51.816;8.662;2023-01-29T10:24:50;36.10;;;15.33;;
21168;SDS011;10742;51.816;8.662;2023-01-29T10:27:58;36.33;;;15.87;;
21168;SDS011;10742;51.816;8.662;2023-01-29T10:31:12;34.17;;;14.07;;
21168;SDS011;10742;51.816;8.662;2023-01-29T10:34:34;32.43;;;14.17;;
21168;SDS011;10742;51.816;8.662;2023-01-29T10:37:51;40.10;;;16.57;;
21168;SDS011;10742;51.816;8.662;2023-01-29T10:40:58;41.53;;;16.63;;
21168;SDS011;10742;51.816;8.662;2023-01-29T10:47:57;34.13;;;14.10;;
21168;SDS011;10742;51.816;8.662;2023-01-29T10:51:39;41.03;;;16.20;;
21168;SDS011;10742;51.816;8.662;2023-01-29T10:58:30;40.30;;;16.47;;
21168;SDS011;10742;51.816;8.662;2023-01-29T11:01:35;40.30;;;16.33;;
21168;SDS011;10742;51.816;8.662;2023-01-29T11:04:37;35.27;;;15.30;;
21168;SDS011;10742;51.816;8.662;2023-01-29T11:07:40;32.60;;;14.10;;
21168;SDS011;10742;51.816;8.662;2023-01-29T11:10:48;37.77;;;15.27;;
21168;SDS011;10742;51.816;8.662;2023-01-29T11:14:03;33.57;;;13.73;;
21168;SDS011;10742;51.816;8.662;2023-01-29T11:17:14;32.83;;;14.50;;
21168;SDS011;10742;51.816;8.662;2023-01-29T11:20:27;31.83;;;15.13;;
21168;SDS011;10742;51.816;8.662;2023-01-29T11:23:32;34.43;;;15.23;;
21168;SDS011;10742;51.816;8.662;2023-01-29T11:26:36;34.30;;;14.80;;
21168;SDS011;10742;51.816;8.662;2023-01-29T11:29:44;33.20;;;15.57;;
21168;SDS011;10742;51.816;8.662;2023-01-29T11:32:49;38.57;;;15.63;;
21168;SDS011;10742;51.816;8.662;2023-01-29T11:35:59;34.23;;;14.80;;
21168;SDS011;10742;51.816;8.662;2023-01-29T11:39:34;32.03;;;14.17;;
21168;SDS011;10742;51.816;8.662;2023-01-29T11:42:49;34.77;;;15.27;;
21168;SDS011;10742;51.816;8.662;2023-01-29T11:46:05;34.30;;;14.80;;
21168;SDS011;10742;51.816;8.662;2023-01-29T11:49:26;32.70;;;14.23;;
21168;SDS011;10742;51.816;8.662;2023-01-29T11:52:33;34.80;;;15.43;;
21168;SDS011;10742;51.816;8.662;2023-01-29T11:55:39;38.07;;;15.40;;
21168;SDS011;10742;51.816;8.662;2023-01-29T11:58:52;36.87;;;17.13;;
21168;SDS011;10742;51.816;8.662;2023-01-29T12:02:01;36.93;;;16.33;;
21168;SDS011;10742;51.816;8.662;2023-01-29T12:05:17;37.33;;;15.67;;
21168;SDS011;10742;51.816;8.662;2023-01-29T12:08:24;35.43;;;15.20;;
21168;SDS011;10742;51.816;8.662;2023-01-29T12:11:31;36.37;;;15.53;;
21168;SDS011;10742;51.816;8.662;2023-01-29T12:14:34;37.07;;;15.60;;
21168;SDS011;10742;51.816;8.662;2023-01-29T12:17:38;35.87;;;15.67;;
21168;SDS011;10742;51.816;8.662;2023-01-29T12:20:45;37.40;;;14.33;;
21168;SDS011;10742;51.816;8.662;2023-01-29T12:24:00;35.83;;;15.17;;
21168;SDS011;10742;51.816;8.662;2023-01-29T12:30:39;34.30;;;14.63;;
21168;SDS011;10742;51.816;8.662;2023-01-29T12:37:32;32.17;;;13.67;;
21168;SDS011;10742;51.816;8.662;2023-01-29T12:41:03;41.87;;;18.47;;
21168;SDS011;10742;51.816;8.662;2023-01-29T12:44:11;39.93;;;16.27;;
21168;SDS011;10742;51.816;8.662;2023-01-29T12:50:34;34.70;;;13.70;;
21168;SDS011;10742;51.816;8.662;2023-01-29T12:53:40;34.33;;;14.70;;
21168;SDS011;10742;51.816;8.662;2023-01-29T12:56:48;35.10;;;14.73;;
21168;SDS011;10742;51.816;8.662;2023-01-29T13:00:15;35.87;;;15.07;;
21168;SDS011;10742;51.816;8.662;2023-01-29T13:06:48;33.90;;;14.07;;
21168;SDS011;10742;51.816;8.662;2023-01-29T13:10:00;33.37;;;12.93;;
21168;SDS011;10742;51.816;8.662;2023-01-29T13:13:13;33.63;;;13.60;;
21168;SDS011;10742;51.816;8.662;2023-01-29T13:16:24;35.53;;;14.63;;
21168;SDS011;10742;51.816;8.662;2023-01-29T13:19:31;36.27;;;15.20;;
21168;SDS011;10742;51.816;8.662;2023-01-29T13:22:39;36.13;;;14.70;;
21168;SDS011;10742;51.816;8.662;2023-01-29T13:25:43;34.17;;;15.00;;
21168;SDS011;10742;51.816;8.662;2023-01-29T13:28:46;36.97;;;15.83;;
21168;SDS011;10742;51.816;8.662;2023-01-29T13:31:53;34.70;;;14.87;;
21168;SDS011;10742;51.816;8.662;2023-01-29T13:35:03;34.60;;;14.80;;
21168;SDS011;10742;51.816;8.662;2023-01-29T13:38:20;34.60;;;14.63;;
21168;SDS011;10742;51.816;8.662;2023-01-29T13:41:34;34.77;;;14.20;;
21168;SDS011;10742;51.816;8.662;2023-01-29T13:44:39;35.17;;;14.20;;
21168;SDS011;10742;51.816;8.662;2023-01-29T13:47:42;35.47;;;14.03;;
21168;SDS011;10742;51.816;8.662;2023-01-29T13:50:45;33.97;;;14.27;;
21168;SDS011;10742;51.816;8.662;2023-01-29T13:53:56;36.13;;;15.73;;
21168;SDS011;10742;51.816;8.662;2023-01-29T13:57:15;34.33;;;14.30;;
21168;SDS011;10742;51.816;8.662;2023-01-29T14:03:50;38.10;;;16.37;;
21168;SDS011;10742;51.816;8.662;2023-01-29T14:07:52;37.53;;;15.63;;
21168;SDS011;10742;51.816;8.662;2023-01-29T14:11:26;36.53;;;17.03;;
21168;SDS011;10742;51.816;8.662;2023-01-29T14:18:03;37.73;;;18.43;;
21168;SDS011;10742;51.816;8.662;2023-01-29T14:24:21;36.80;;;16.47;;
21168;SDS011;10742;51.816;8.662;2023-01-29T14:27:29;41.10;;;18.63;;
21168;SDS011;10742;51.816;8.662;2023-01-29T14:30:33;40.27;;;17.60;;
21168;SDS011;10742;51.816;8.662;2023-01-29T14:33:37;36.70;;;16.27;;
21168;SDS011;10742;51.816;8.662;2023-01-29T14:36:42;53.20;;;22.40;;
21168;SDS011;10742;51.816;8.662;2023-01-29T14:40:07;38.83;;;17.27;;
21168;SDS011;10742;51.816;8.662;2023-01-29T14:43:20;36.87;;;16.47;;
21168;SDS011;10742;51.816;8.662;2023-01-29T14:49:46;35.43;;;15.70;;
21168;SDS011;10742;51.816;8.662;2023-01-29T14:53:12;34.53;;;15.40;;
21168;SDS011;10742;51.816;8.662;2023-01-29T14:56:30;33.57;;;15.77;;
21168;SDS011;10742;51.816;8.662;2023-01-29T14:59:37;35.87;;;15.63;;
21168;SDS011;10742;51.816;8.662;2023-01-29T15:02:50;34.27;;;14.87;;
21168;SDS011;10742;51.816;8.662;2023-01-29T15:06:03;33.23;;;14.67;;
21168;SDS011;10742;51.816;8.662;2023-01-29T15:12:26;41.87;;;16.00;;
21168;SDS011;10742;51.816;8.662;2023-01-29T15:15:41;45.47;;;22.50;;
21168;SDS011;10742;51.816;8.662;2023-01-29T15:18:48;37.60;;;16.73;;
21168;SDS011;10742;51.816;8.662;2023-01-29T15:25:13;37.50;;;16.70;;
21168;SDS011;10742;51.816;8.662;2023-01-29T15:28:16;35.40;;;14.53;;
21168;SDS011;10742;51.816;8.662;2023-01-29T15:31:19;34.83;;;16.07;;
21168;SDS011;10742;51.816;8.662;2023-01-29T15:34:21;38.03;;;16.00;;
21168;SDS011;10742;51.816;8.662;2023-01-29T15:37:25;36.40;;;14.63;;
21168;SDS011;10742;51.816;8.662;2023-01-29T15:40:52;33.17;;;15.00;;
21168;SDS011;10742;51.816;8.662;2023-01-29T15:44:20;32.40;;;14.33;;
21168;SDS011;10742;51.816;8.662;2023-01-29T15:47:24;32.53;;;15.20;;
21168;SDS011;10742;51.816;8.662;2023-01-29T15:50:33;32.33;;;14.30;;
21168;SDS011;10742;51.816;8.662;2023-01-29T15:53:40;32.07;;;14.13;;
21168;SDS011;10742;51.816;8.662;2023-01-29T15:56:48;34.33;;;14.73;;
21168;SDS011;10742;51.816;8.662;2023-01-29T15:59:52;34.00;;;14.63;;
21168;SDS011;10742;51.816;8.662;2023-01-29T16:02:58;30.40;;;14.23;;
21168;SDS011;10742;51.816;8.662;2023-01-29T16:06:03;36.77;;;15.17;;
21168;SDS011;10742;51.816;8.662;2023-01-29T16:09:09;33.77;;;14.47;;
21168;SDS011;10742;51.816;8.662;2023-01-29T16:12:19;33.20;;;13.90;;
21168;SDS011;10742;51.816;8.662;2023-01-29T16:15:26;33.80;;;14.47;;
21168;SDS011;10742;51.816;8.662;2023-01-29T16:18:37;30.90;;;13.53;;
21168;SDS011;10742;51.816;8.662;2023-01-29T16:21:50;34.77;;;15.27;;
21168;SDS011;10742;51.816;8.662;2023-01-29T16:25:00;35.00;;;14.40;;
21168;SDS011;10742;51.816;8.662;2023-01-29T16:28:08;30.77;;;13.60;;
21168;SDS011;10742;51.816;8.662;2023-01-29T16:31:11;32.07;;;14.50;;
21168;SDS011;10742;51.816;8.662;2023-01-29T16:34:27;32.50;;;14.33;;
21168;SDS011;10742;51.816;8.662;2023-01-29T16:37:36;32.37;;;14.10;;
21168;SDS011;10742;51.816;8.662;2023-01-29T16:40:39;34.07;;;13.53;;
21168;SDS011;10742;51.816;8.662;2023-01-29T16:44:29;32.33;;;13.80;;
21168;SDS011;10742;51.816;8.662;2023-01-29T16:50:38;33.97;;;14.57;;
21168;SDS011;10742;51.816;8.662;2023-01-29T16:53:58;33.33;;;15.27;;
21168;SDS011;10742;51.816;8.662;2023-01-29T16:57:23;34.00;;;14.77;;
21168;SDS011;10742;51.816;8.662;2023-01-29T17:00:28;33.17;;;14.27;;
21168;SDS011;10742;51.816;8.662;2023-01-29T17:03:32;33.67;;;14.80;;
21168;SDS011;10742;51.816;8.662;2023-01-29T17:06:35;30.60;;;13.90;;
21168;SDS011;10742;51.816;8.662;2023-01-29T17:09:38;31.83;;;13.90;;
21168;SDS011;10742;51.816;8.662;2023-01-29T17:12:44;30.87;;;13.03;;
21168;SDS011;10742;51.816;8.662;2023-01-29T17:15:58;31.70;;;12.17;;
21168;SDS011;10742;51.816;8.662;2023-01-29T17:19:16;28.77;;;12.90;;
21168;SDS011;10742;51.816;8.662;2023-01-29T17:22:22;28.83;;;12.30;;
21168;SDS011;10742;51.816;8.662;2023-01-29T17:25:25;29.73;;;12.93;;
21168;SDS011;10742;51.816;8.662;2023-01-29T17:28:28;30.90;;;12.77;;
21168;SDS011;10742;51.816;8.662;2023-01-29T17:31:31;35.57;;;14.33;;
21168;SDS011;10742;51.816;8.662;2023-01-29T17:34:34;30.93;;;12.10;;
21168;SDS011;10742;51.816;8.662;2023-01-29T17:37:36;30.93;;;13.07;;
21168;SDS011;10742;51.816;8.662;2023-01-29T17:44:02;31.67;;;12.77;;
21168;SDS011;10742;51.816;8.662;2023-01-29T17:47:05;28.50;;;11.80;;
21168;SDS011;10742;51.816;8.662;2023-01-29T17:50:12;29.60;;;11.40;;
21168;SDS011;10742;51.816;8.662;2023-01-29T17:53:22;28.63;;;11.90;;
21168;SDS011;10742;51.816;8.662;2023-01-29T17:56:27;29.13;;;11.67;;
21168;SDS011;10742;51.816;8.662;2023-01-29T17:59:31;26.50;;;10.87;;
21168;SDS011;10742;51.816;8.662;2023-01-29T18:02:34;31.53;;;11.73;;
21168;SDS011;10742;51.816;8.662;2023-01-29T18:05:37;27.97;;;11.53;;
21168;SDS011;10742;51.816;8.662;2023-01-29T18:08:43;31.40;;;12.67;;
21168;SDS011;10742;51.816;8.662;2023-01-29T18:11:46;31.03;;;12.30;;
21168;SDS011;10742;51.816;8.662;2023-01-29T18:14:50;28.33;;;11.73;;
21168;SDS011;10742;51.816;8.662;2023-01-29T18:17:52;31.10;;;12.60;;
21168;SDS011;10742;51.816;8.662;2023-01-29T18:20:54;30.47;;;13.10;;
21168;SDS011;10742;51.816;8.662;2023-01-29T18:23:57;30.20;;;12.70;;
21168;SDS011;10742;51.816;8.662;2023-01-29T18:26:59;29.80;;;12.10;;
21168;SDS011;10742;51.816;8.662;2023-01-29T18:30:01;29.07;;;12.30;;
21168;SDS011;10742;51.816;8.662;2023-01-29T18:33:05;29.93;;;12.63;;
21168;SDS011;10742;51.816;8.662;2023-01-29T18:36:08;30.43;;;12.13;;
21168;SDS011;10742;51.816;8.662;2023-01-29T18:39:10;30.43;;;11.70;;
21168;SDS011;10742;51.816;8.662;2023-01-29T18:42:13;34.97;;;16.07;;
21168;SDS011;10742;51.816;8.662;2023-01-29T18:45:15;33.80;;;13.73;;
21168;SDS011;10742;51.816;8.662;2023-01-29T18:48:18;29.67;;;11.80;;
21168;SDS011;10742;51.816;8.662;2023-01-29T18:51:20;30.13;;;12.77;;
21168;SDS011;10742;51.816;8.662;2023-01-29T18:54:23;33.20;;;13.87;;
21168;SDS011;10742;51.816;8.662;2023-01-29T18:57:26;31.93;;;13.77;;
21168;SDS011;10742;51.816;8.662;2023-01-29T19:00:29;32.83;;;13.57;;
21168;SDS011;10742;51.816;8.662;2023-01-29T19:03:31;45.83;;;20.20;;
21168;SDS011;10742;51.816;8.662;2023-01-29T19:06:34;36.17;;;14.50;;
21168;SDS011;10742;51.816;8.662;2023-01-29T19:09:38;35.03;;;13.80;;
21168;SDS011;10742;51.816;8.662;2023-01-29T19:12:41;35.10;;;15.57;;
21168;SDS011;10742;51.816;8.662;2023-01-29T19:15:44;34.10;;;14.70;;
21168;SDS011;10742;51.816;8.662;2023-01-29T19:18:49;32.83;;;13.90;;
21168;SDS011;10742;51.816;8.662;2023-01-29T19:21:53;33.40;;;13.70;;
21168;SDS011;10742;51.816;8.662;2023-01-29T19:24:56;34.30;;;13.93;;
21168;SDS011;10742;51.816;8.662;2023-01-29T19:27:58;31.53;;;13.03;;
21168;SDS011;10742;51.816;8.662;2023-01-29T19:31:01;31.97;;;13.33;;
21168;SDS011;10742;51.816;8.662;2023-01-29T19:34:04;31.03;;;12.23;;
21168;SDS011;10742;51.816;8.662;2023-01-29T19:37:06;31.93;;;12.63;;
21168;SDS011;10742;51.816;8.662;2023-01-29T19:40:10;30.87;;;11.93;;
21168;SDS011;10742;51.816;8.662;2023-01-29T19:43:13;30.00;;;13.07;;
21168;SDS011;10742;51.816;8.662;2023-01-29T19:46:18;30.07;;;12.03;;
21168;SDS011;10742;51.816;8.662;2023-01-29T19:49:21;30.27;;;11.77;;
21168;SDS011;10742;51.816;8.662;2023-01-29T19:52:23;27.33;;;11.93;;
21168;SDS011;10742;51.816;8.662;2023-01-29T19:55:59;30.90;;;12.10;;
21168;SDS011;10742;51.816;8.662;2023-01-29T19:59:09;28.47;;;11.60;;
21168;SDS011;10742;51.816;8.662;2023-01-29T20:02:12;26.73;;;11.17;;